Aeroporto :
LOGIN :

Iscrizione | Disclaimer

   EN    FR    IT 

 










Sommario :    VFR   VFR Marginale   IFR   IFR Intensivo   IFR Molto Intensivo
Visibilità : 
Base nubi : 
>= 8 km
>= 3000ft
5 / 8 km
1000 / 3000 ft
1500m / 5 km
500 / 1000 ft
800 / 1500m
200 / 500 ft
< 800m
< 200 ft
Simboli :   Temporali  Nebbia  Neve Forte  Precipitazioni Forti  Vento > 20 kt
SIGMETs :   Varie  Temporali  Ghiacco  Turbolenza  Onda orograficha  Ceneri Vulcaniche






- Altitudine del aeroporto : 995 ft
- Codice IATA : KTW


EPKT - Katowice

ULTIMO METAR :
  • 030100Z 22002KT 4000 0900NW R27/1800D BCFG BR NSC 08/07 Q1007

METARs OBSOLETI :
  • 030030Z 22003KT 9999 MIFG NSC 08/08 Q1007
  • 030000Z 24003KT CAVOK 08/07 Q1007
  • 022330Z 25002KT CAVOK 09/08 Q1008
  • 022300Z 24002KT CAVOK 09/08 Q1008
  • 022230Z 23004KT CAVOK 10/08 Q1008

TAF TAF EPKT
Valido dal 03 a 00 ore il 04 a 00 ore UTC


022330Z 0300/0324 VRB02KT CAVOK
TEMPO 0301/0304 3000 BR
BECMG 0307/0309 34010KT
TEMPO 0310/0318 SCT040CB
BECMG 0318/0321 VRB02KT



MetMap, La meteo Aeronautica in un colpo d'occhio ! - Copyright ORBIFLY Dicembre 2007 - Disclaimer

ORBIFLY MET'MAP TEAM :

Programmazione e sviluppo : Alexandra Zaïnal
Concezione : Baudouin d'Aumeries
Aiuto per la programmazione : Marc-Olivier Méhu
Supporto tecnico e logistico : Manuel Goepfert
Aiuto per la traduzione : Arnaldo La Scala

Contatto : metmap@orbifly.com




FONTI E CREDITI :

   NOAA